Terminal Aerodrome Forecast
Issued by NWS Duluth, MN

Home | Current Version | Previous Version | Text Only | Print | Product List | Glossary On
Versions: 1 2 3 4 5 6 7 8 9 10 11 12 13 14 15 16 17 18 19 20 21 22 23 24 25 26 27 28
678
FTUS43 KDLH 170402 AAC
TAFDLH
TAF AMD
KDLH 170402Z 1704/1724 08014G21KT P6SM -RA FEW045 OVC120
     FM170600 07007KT 2SM SHRA OVC008
     FM171500 04008KT 2SM SHRA OVC003
     FM171800 36008KT 3SM -SHRA OVC003
     FM172000 34009G19KT P6SM VCSH OVC003=

USA.gov is the U.S. government's official web portal to all federal, state and local government web resources and services.